First Ferry Viii — VRS4306 — position and weather

sailwx.info

Track history (hours):
 
Tides and Currents Weather Stations Pressure Air Temp Water Temp Dewpoint Dewpoint Depression Visibility Wind Speed Wind Dir Waves Ship Positions

First Ferry Viii

Last reported at 2014-Nov-21 18:33 UTC. Time now 2014-Nov-21 19:16 UTC.
Position N 22°19' E 114°12'.

Length 36 m; draft 1.8 m.

Type: High speed craft. MMSI: 477995030.

Date/timePositionNaut miles runAvg speedWind from/ knotsBaromVisibWave heightAir tempDewpointWater temp
2014-Nov-21 18:33N 22°19' E 114°12'0 0.0
2014-Nov-21 17:34N 22°19' E 114°12'0 0.0
2014-Nov-21 16:33N 22°19' E 114°12'0 0.0
2014-Nov-21 15:33N 22°19' E 114°12'3 2.6
2014-Nov-21 14:32N 22°17' E 114°10'1 0.8
2014-Nov-21 13:07N 22°18' E 114°08'1 0.2
2014-Nov-21 06:33N 22°18' E 114°09'1 0.4
2014-Nov-21 04:19N 22°17' E 114°10'0 0.0
2014-Nov-21 02:18N 22°17' E 114°10'3 3.5
2014-Nov-21 01:33N 22°19' E 114°12'3 2.5
2014-Nov-21 00:28N 22°17' E 114°09'2 1.2
2014-Nov-20 22:33N 22°18' E 114°12'1 0.7
2014-Nov-20 21:33N 22°19' E 114°12'0 0.0
2014-Nov-20 20:33N 22°19' E 114°12'0 0.0
2014-Nov-20 19:33N 22°19' E 114°12'0 0.1
2014-Nov-20 18:33N 22°19' E 114°12'0 0.1
2014-Nov-20 17:33N 22°19' E 114°12'0 0.0
2014-Nov-20 16:32N 22°19' E 114°12'0 0.0
2014-Nov-20 15:33N 22°19' E 114°12'0 0.0
2014-Nov-20 14:33N 22°19' E 114°12'0 0.1
2014-Nov-20 13:33N 22°19' E 114°12'0 0.1
2014-Nov-20 12:33N 22°19' E 114°12'3 2.3
2014-Nov-20 11:06N 22°18' E 114°08'3 4.4
2014-Nov-20 10:26N 22°18' E 114°12'1 0.9
2014-Nov-20 09:33N 22°19' E 114°12'0 0.0
2014-Nov-20 08:33N 22°19' E 114°12'0 0.0
2014-Nov-20 07:33N 22°19' E 114°12'0 0.0
2014-Nov-20 06:33N 22°19' E 114°12'2 2.1
2014-Nov-20 05:27N 22°17' E 114°10'0 0.2
2014-Nov-20 03:17N 22°17' E 114°10'0 0.2
2014-Nov-20 01:33N 22°18' E 114°09'0 0.3
2014-Nov-20 00:27N 22°17' E 114°09'3 1.4
2014-Nov-19 22:33N 22°19' E 114°12'0 0.1
2014-Nov-19 21:31N 22°19' E 114°12'0 0.0
2014-Nov-19 20:27N 22°19' E 114°12'0 0.0
2014-Nov-19 19:33N 22°19' E 114°12'0 0.0
2014-Nov-19 18:32N 22°19' E 114°12'0 0.0
2014-Nov-19 17:32N 22°19' E 114°12'0 0.0
2014-Nov-19 16:29N 22°19' E 114°12'0 0.0
2014-Nov-19 15:33N 22°19' E 114°12'0 0.0
2014-Nov-19 14:19N 22°19' E 114°12'0 0.0
2014-Nov-19 13:25N 22°19' E 114°12'0 0.0
2014-Nov-19 12:26N 22°19' E 114°12'4 2.7
2014-Nov-19 11:07N 22°18' E 114°08'3 4.3
2014-Nov-19 10:21N 22°18' E 114°12'1 0.9
2014-Nov-19 09:32N 22°19' E 114°12'0 0.0
2014-Nov-19 08:33N 22°19' E 114°12'0 0.0
2014-Nov-19 07:33N 22°19' E 114°12'3 2.0
2014-Nov-19 06:17N 22°17' E 114°10'910.1
2014-Nov-19 05:25N 22°13' E 114°02'9 7.9
2014-Nov-19 04:19N 22°17' E 114°10'2 1.0
2014-Nov-19 02:10N 22°18' E 114°12'1 0.7
2014-Nov-19 01:15N 22°19' E 114°12'3 3.3
2014-Nov-19 00:28N 22°17' E 114°10'3 1.4
2014-Nov-18 22:33N 22°19' E 114°12'0 0.0
2014-Nov-18 21:31N 22°19' E 114°12'0 0.0
2014-Nov-18 20:33N 22°19' E 114°12'0 0.0
2014-Nov-18 19:31N 22°19' E 114°12'0 0.0
2014-Nov-18 18:23N 22°19' E 114°12'0 0.0
2014-Nov-18 17:33N 22°19' E 114°12'0 0.0
2014-Nov-18 16:29N 22°19' E 114°12'0 0.0
2014-Nov-18 15:33N 22°19' E 114°12'0 0.0
2014-Nov-18 14:32N 22°19' E 114°12'0 0.0
2014-Nov-18 13:33N 22°19' E 114°12'0 0.0
2014-Nov-18 12:27N 22°19' E 114°12'4 2.7
2014-Nov-18 11:06N 22°18' E 114°08'3 4.2
2014-Nov-18 10:18N 22°18' E 114°12'1 0.7
2014-Nov-18 09:33N 22°19' E 114°12'0 0.0
2014-Nov-18 08:33N 22°19' E 114°12'0 0.0
2014-Nov-18 07:33N 22°19' E 114°12'3 2.0
2014-Nov-18 06:18N 22°17' E 114°10'0 0.0
2014-Nov-18 04:19N 22°17' E 114°10'0 0.1
2014-Nov-18 02:09N 22°17' E 114°09'0 0.0
2014-Nov-18 00:28N 22°17' E 114°09'2 1.2
2014-Nov-17 22:33N 22°19' E 114°12'1 0.5
2014-Nov-17 21:33N 22°19' E 114°12'0 0.0
2014-Nov-17 20:33N 22°19' E 114°12'0 0.0
2014-Nov-17 19:33N 22°19' E 114°12'0 0.0
2014-Nov-17 18:34N 22°19' E 114°12'0 0.0
2014-Nov-17 17:33N 22°19' E 114°12'0 0.0
2014-Nov-17 16:33N 22°19' E 114°12'0 0.0
2014-Nov-17 15:33N 22°19' E 114°12'0 0.0
2014-Nov-17 14:34N 22°19' E 114°12'0 0.0
2014-Nov-17 13:34N 22°19' E 114°12'0 0.1
2014-Nov-17 12:34N 22°19' E 114°12'3 2.2
2014-Nov-17 11:07N 22°18' E 114°09'3 4.2
2014-Nov-17 10:26N 22°18' E 114°12'1 0.5
2014-Nov-17 08:33N 22°19' E 114°12'0 0.0
2014-Nov-17 07:32N 22°19' E 114°12'3 2.0
2014-Nov-17 06:18N 22°17' E 114°10'0 0.0
2014-Nov-17 04:17N 22°17' E 114°10'0 0.2
2014-Nov-17 02:26N 22°17' E 114°10'2 2.7
2014-Nov-17 01:33N 22°19' E 114°12'3 2.5
2014-Nov-17 00:30N 22°17' E 114°10'2 1.1
2014-Nov-16 22:32N 22°18' E 114°12'1 0.8
2014-Nov-16 21:32N 22°19' E 114°12'0 0.0
2014-Nov-16 20:31N 22°19' E 114°12'0 0.0
2014-Nov-16 19:33N 22°19' E 114°12'0 0.0
2014-Nov-16 18:33N 22°19' E 114°12'0 0.0
2014-Nov-16 17:33N 22°19' E 114°12'0 0.0
2014-Nov-16 16:33N 22°19' E 114°12'0 0.0
2014-Nov-16 15:33N 22°19' E 114°12'0 0.0
2014-Nov-16 14:33N 22°19' E 114°12'4 1.8
2014-Nov-16 12:33N 22°17' E 114°08'0 0.2
2014-Nov-16 11:03N 22°18' E 114°08'2 3.7
2014-Nov-16 10:33N 22°17' E 114°10'2 1.1
2014-Nov-16 09:06N 22°18' E 114°08'0 0.0
2014-Nov-16 07:12N 22°18' E 114°08'1 0.4
2014-Nov-16 03:33N 22°17' E 114°10'1 0.9
2014-Nov-16 02:05N 22°18' E 114°08'1 2.0
2014-Nov-16 01:33N 22°17' E 114°09'1 1.0
2014-Nov-16 00:09N 22°18' E 114°08'2 3.1
2014-Nov-15 23:30N 22°19' E 114°09'3 2.6
2014-Nov-15 22:33N 22°19' E 114°12'0 0.1
2014-Nov-15 21:30N 22°19' E 114°12'0 0.0
2014-Nov-15 16:21N 22°19' E 114°12'0 0.0
2014-Nov-15 15:25N 22°19' E 114°12'0 0.0
2014-Nov-15 14:33N 22°19' E 114°12'0 0.0
2014-Nov-15 13:32N 22°19' E 114°12'3 2.6
2014-Nov-15 12:33N 22°17' E 114°10'2 1.3
2014-Nov-15 11:09N 22°18' E 114°08'2 2.6
2014-Nov-15 10:27N 22°17' E 114°10'0 0.0
2014-Nov-15 06:18N 22°17' E 114°10'0 0.0
2014-Nov-15 04:20N 22°17' E 114°10'0 0.1
2014-Nov-15 02:22N 22°17' E 114°10'2 2.5
2014-Nov-15 01:24N 22°19' E 114°12'3 2.9
2014-Nov-15 00:29N 22°17' E 114°10'3 1.4
2014-Nov-14 22:33N 22°19' E 114°12'0 0.0
2014-Nov-14 21:33N 22°19' E 114°12'0 0.0
2014-Nov-14 20:33N 22°19' E 114°12'0 0.0
2014-Nov-14 19:33N 22°19' E 114°12'0 0.0
2014-Nov-14 18:33N 22°19' E 114°12'0 0.0
2014-Nov-14 17:33N 22°19' E 114°12'0 0.0
2014-Nov-14 16:33N 22°19' E 114°12'0 0.0
2014-Nov-14 15:33N 22°19' E 114°12'0 0.0
2014-Nov-14 14:33N 22°19' E 114°12'0 0.0
2014-Nov-14 12:33N 22°19' E 114°12'4 2.5
2014-Nov-14 11:08N 22°18' E 114°08'3 4.5
2014-Nov-14 10:27N 22°18' E 114°12'1 0.9
2014-Nov-14 09:33N 22°19' E 114°12'0 0.0
2014-Nov-14 08:33N 22°19' E 114°12'0 0.0
2014-Nov-14 07:34N 22°19' E 114°12'0 0.4
2014-Nov-14 06:34N 22°18' E 114°12'2 1.0
2014-Nov-14 04:17N 22°17' E 114°10'0 0.0
2014-Nov-14 02:16N 22°17' E 114°10'0 0.0
2014-Nov-14 00:28N 22°17' E 114°10'2 1.2
2014-Nov-13 22:33N 22°19' E 114°12'0 0.4
2014-Nov-13 21:34N 22°19' E 114°12'0 0.0
2014-Nov-13 20:33N 22°19' E 114°12'0 0.0
2014-Nov-13 19:33N 22°19' E 114°12'0 0.0
2014-Nov-13 18:28N 22°19' E 114°12'0 0.0
2014-Nov-13 17:33N 22°19' E 114°12'0 0.0
2014-Nov-13 16:33N 22°19' E 114°12'0 0.0
2014-Nov-13 15:33N 22°19' E 114°12'0 0.0
2014-Nov-13 14:31N 22°19' E 114°12'0 0.0
2014-Nov-13 13:33N 22°19' E 114°12'0 0.0
2014-Nov-13 12:33N 22°19' E 114°12'3 2.4
2014-Nov-13 11:08N 22°18' E 114°08'3 3.6
2014-Nov-13 10:22N 22°18' E 114°11'1 1.4
2014-Nov-13 09:32N 22°19' E 114°12'0 0.0
2014-Nov-13 08:33N 22°19' E 114°12'0 0.0
2014-Nov-13 07:33N 22°19' E 114°12'1 0.5
2014-Nov-13 06:34N 22°18' E 114°12'2 1.0
2014-Nov-13 04:18N 22°17' E 114°10'0 0.0
2014-Nov-13 02:30N 22°17' E 114°10'0 0.0
2014-Nov-13 00:31N 22°17' E 114°10'2 1.7
2014-Nov-12 23:11N 22°17' E 114°07'4 6.6
2014-Nov-12 22:33N 22°18' E 114°12'1 1.1
2014-Nov-12 21:33N 22°19' E 114°12'0 0.0
2014-Nov-12 20:33N 22°19' E 114°12'0 0.0
2014-Nov-12 19:33N 22°19' E 114°12'0 0.1
2014-Nov-12 18:33N 22°19' E 114°12'0 0.1
2014-Nov-12 17:33N 22°19' E 114°12'0 0.0
2014-Nov-12 16:33N 22°19' E 114°12'0 0.0
2014-Nov-12 15:33N 22°19' E 114°12'0 0.0
2014-Nov-12 14:33N 22°19' E 114°12'0 0.0
2014-Nov-12 13:33N 22°19' E 114°12'0 0.0
2014-Nov-12 12:33N 22°19' E 114°12'4 2.9
2014-Nov-12 11:08N 22°18' E 114°08'2 3.4
2014-Nov-12 10:33N 22°17' E 114°10'3 2.6
2014-Nov-12 09:33N 22°19' E 114°12'0 0.1
2014-Nov-12 08:33N 22°19' E 114°12'0 0.0
2014-Nov-12 07:33N 22°19' E 114°12'0 0.5
2014-Nov-12 06:33N 22°18' E 114°12'2 1.2
2014-Nov-12 04:33N 22°17' E 114°10'0 0.0
2014-Nov-12 02:13N 22°17' E 114°10'0 0.0
2014-Nov-12 00:33N 22°17' E 114°10'3 1.3
2014-Nov-11 22:33N 22°19' E 114°12'0 0.1
2014-Nov-11 21:33N 22°19' E 114°12'0 0.0
2014-Nov-11 20:33N 22°19' E 114°12'0 0.0
2014-Nov-11 19:33N 22°19' E 114°12'0 0.0
2014-Nov-11 18:34N 22°19' E 114°12'  
Track history (hours):
 
Tides and Currents Weather Stations Pressure Air Temp Water Temp Dewpoint Dewpoint Depression Visibility Wind Speed Wind Dir Waves Ship Positions

First Ferry Viii

Last reported at 2014-Nov-21 18:33 UTC. Time now 2014-Nov-21 19:16 UTC.
Position N 22°19' E 114°12'.

Length 36 m; draft 1.8 m.

Type: High speed craft. MMSI: 477995030.

Date/timePositionNaut miles runAvg speedWind from/ knotsBaromVisibWave heightAir tempDewpointWater temp
2014-Nov-21 18:33N 22°19' E 114°12'0 0.0
2014-Nov-21 17:34N 22°19' E 114°12'0 0.0
2014-Nov-21 16:33N 22°19' E 114°12'0 0.0
2014-Nov-21 15:33N 22°19' E 114°12'3 2.6
2014-Nov-21 14:32N 22°17' E 114°10'1 0.8
2014-Nov-21 13:07N 22°18' E 114°08'1 0.2
2014-Nov-21 06:33N 22°18' E 114°09'1 0.4
2014-Nov-21 04:19N 22°17' E 114°10'0 0.0
2014-Nov-21 02:18N 22°17' E 114°10'3 3.5
2014-Nov-21 01:33N 22°19' E 114°12'3 2.5
2014-Nov-21 00:28N 22°17' E 114°09'2 1.2
2014-Nov-20 22:33N 22°18' E 114°12'1 0.7
2014-Nov-20 21:33N 22°19' E 114°12'0 0.0
2014-Nov-20 20:33N 22°19' E 114°12'0 0.0
2014-Nov-20 19:33N 22°19' E 114°12'0 0.1
2014-Nov-20 18:33N 22°19' E 114°12'0 0.1
2014-Nov-20 17:33N 22°19' E 114°12'0 0.0
2014-Nov-20 16:32N 22°19' E 114°12'0 0.0
2014-Nov-20 15:33N 22°19' E 114°12'0 0.0
2014-Nov-20 14:33N 22°19' E 114°12'0 0.1
2014-Nov-20 13:33N 22°19' E 114°12'0 0.1
2014-Nov-20 12:33N 22°19' E 114°12'3 2.3
2014-Nov-20 11:06N 22°18' E 114°08'3 4.4
2014-Nov-20 10:26N 22°18' E 114°12'1 0.9
2014-Nov-20 09:33N 22°19' E 114°12'0 0.0
2014-Nov-20 08:33N 22°19' E 114°12'0 0.0
2014-Nov-20 07:33N 22°19' E 114°12'0 0.0
2014-Nov-20 06:33N 22°19' E 114°12'2 2.1
2014-Nov-20 05:27N 22°17' E 114°10'0 0.2
2014-Nov-20 03:17N 22°17' E 114°10'0 0.2
2014-Nov-20 01:33N 22°18' E 114°09'0 0.3
2014-Nov-20 00:27N 22°17' E 114°09'3 1.4
2014-Nov-19 22:33N 22°19' E 114°12'0 0.1
2014-Nov-19 21:31N 22°19' E 114°12'0 0.0
2014-Nov-19 20:27N 22°19' E 114°12'0 0.0
2014-Nov-19 19:33N 22°19' E 114°12'0 0.0
2014-Nov-19 18:32N 22°19' E 114°12'0 0.0
2014-Nov-19 17:32N 22°19' E 114°12'0 0.0
2014-Nov-19 16:29N 22°19' E 114°12'0 0.0
2014-Nov-19 15:33N 22°19' E 114°12'0 0.0
2014-Nov-19 14:19N 22°19' E 114°12'0 0.0
2014-Nov-19 13:25N 22°19' E 114°12'0 0.0
2014-Nov-19 12:26N 22°19' E 114°12'4 2.7
2014-Nov-19 11:07N 22°18' E 114°08'3 4.3
2014-Nov-19 10:21N 22°18' E 114°12'1 0.9
2014-Nov-19 09:32N 22°19' E 114°12'0 0.0
2014-Nov-19 08:33N 22°19' E 114°12'0 0.0
2014-Nov-19 07:33N 22°19' E 114°12'3 2.0
2014-Nov-19 06:17N 22°17' E 114°10'910.1
2014-Nov-19 05:25N 22°13' E 114°02'9 7.9
2014-Nov-19 04:19N 22°17' E 114°10'2 1.0
2014-Nov-19 02:10N 22°18' E 114°12'1 0.7
2014-Nov-19 01:15N 22°19' E 114°12'3 3.3
2014-Nov-19 00:28N 22°17' E 114°10'3 1.4
2014-Nov-18 22:33N 22°19' E 114°12'0 0.0
2014-Nov-18 21:31N 22°19' E 114°12'0 0.0
2014-Nov-18 20:33N 22°19' E 114°12'0 0.0
2014-Nov-18 19:31N 22°19' E 114°12'0 0.0
2014-Nov-18 18:23N 22°19' E 114°12'0 0.0
2014-Nov-18 17:33N 22°19' E 114°12'0 0.0
2014-Nov-18 16:29N 22°19' E 114°12'0 0.0
2014-Nov-18 15:33N 22°19' E 114°12'0 0.0
2014-Nov-18 14:32N 22°19' E 114°12'0 0.0
2014-Nov-18 13:33N 22°19' E 114°12'0 0.0
2014-Nov-18 12:27N 22°19' E 114°12'4 2.7
2014-Nov-18 11:06N 22°18' E 114°08'3 4.2
2014-Nov-18 10:18N 22°18' E 114°12'1 0.7
2014-Nov-18 09:33N 22°19' E 114°12'0 0.0
2014-Nov-18 08:33N 22°19' E 114°12'0 0.0
2014-Nov-18 07:33N 22°19' E 114°12'3 2.0
2014-Nov-18 06:18N 22°17' E 114°10'0 0.0
2014-Nov-18 04:19N 22°17' E 114°10'0 0.1
2014-Nov-18 02:09N 22°17' E 114°09'0 0.0
2014-Nov-18 00:28N 22°17' E 114°09'2 1.2
2014-Nov-17 22:33N 22°19' E 114°12'1 0.5
2014-Nov-17 21:33N 22°19' E 114°12'0 0.0
2014-Nov-17 20:33N 22°19' E 114°12'0 0.0
2014-Nov-17 19:33N 22°19' E 114°12'0 0.0
2014-Nov-17 18:34N 22°19' E 114°12'0 0.0
2014-Nov-17 17:33N 22°19' E 114°12'0 0.0
2014-Nov-17 16:33N 22°19' E 114°12'0 0.0
2014-Nov-17 15:33N 22°19' E 114°12'0 0.0
2014-Nov-17 14:34N 22°19' E 114°12'0 0.0
2014-Nov-17 13:34N 22°19' E 114°12'0 0.1
2014-Nov-17 12:34N 22°19' E 114°12'3 2.2
2014-Nov-17 11:07N 22°18' E 114°09'3 4.2
2014-Nov-17 10:26N 22°18' E 114°12'1 0.5
2014-Nov-17 08:33N 22°19' E 114°12'0 0.0
2014-Nov-17 07:32N 22°19' E 114°12'3 2.0
2014-Nov-17 06:18N 22°17' E 114°10'0 0.0
2014-Nov-17 04:17N 22°17' E 114°10'0 0.2
2014-Nov-17 02:26N 22°17' E 114°10'2 2.7
2014-Nov-17 01:33N 22°19' E 114°12'3 2.5
2014-Nov-17 00:30N 22°17' E 114°10'2 1.1
2014-Nov-16 22:32N 22°18' E 114°12'1 0.8
2014-Nov-16 21:32N 22°19' E 114°12'0 0.0
2014-Nov-16 20:31N 22°19' E 114°12'0 0.0
2014-Nov-16 19:33N 22°19' E 114°12'0 0.0
2014-Nov-16 18:33N 22°19' E 114°12'0 0.0
2014-Nov-16 17:33N 22°19' E 114°12'0 0.0
2014-Nov-16 16:33N 22°19' E 114°12'0 0.0
2014-Nov-16 15:33N 22°19' E 114°12'0 0.0
2014-Nov-16 14:33N 22°19' E 114°12'4 1.8
2014-Nov-16 12:33N 22°17' E 114°08'0 0.2
2014-Nov-16 11:03N 22°18' E 114°08'2 3.7
2014-Nov-16 10:33N 22°17' E 114°10'2 1.1
2014-Nov-16 09:06N 22°18' E 114°08'0 0.0
2014-Nov-16 07:12N 22°18' E 114°08'1 0.4
2014-Nov-16 03:33N 22°17' E 114°10'1 0.9
2014-Nov-16 02:05N 22°18' E 114°08'1 2.0
2014-Nov-16 01:33N 22°17' E 114°09'1 1.0
2014-Nov-16 00:09N 22°18' E 114°08'2 3.1
2014-Nov-15 23:30N 22°19' E 114°09'3 2.6
2014-Nov-15 22:33N 22°19' E 114°12'0 0.1
2014-Nov-15 21:30N 22°19' E 114°12'0 0.0
2014-Nov-15 16:21N 22°19' E 114°12'0 0.0
2014-Nov-15 15:25N 22°19' E 114°12'0 0.0
2014-Nov-15 14:33N 22°19' E 114°12'0 0.0
2014-Nov-15 13:32N 22°19' E 114°12'3 2.6
2014-Nov-15 12:33N 22°17' E 114°10'2 1.3
2014-Nov-15 11:09N 22°18' E 114°08'2 2.6
2014-Nov-15 10:27N 22°17' E 114°10'0 0.0
2014-Nov-15 06:18N 22°17' E 114°10'0 0.0
2014-Nov-15 04:20N 22°17' E 114°10'0 0.1
2014-Nov-15 02:22N 22°17' E 114°10'2 2.5
2014-Nov-15 01:24N 22°19' E 114°12'3 2.9
2014-Nov-15 00:29N 22°17' E 114°10'3 1.4
2014-Nov-14 22:33N 22°19' E 114°12'0 0.0
2014-Nov-14 21:33N 22°19' E 114°12'0 0.0
2014-Nov-14 20:33N 22°19' E 114°12'0 0.0
2014-Nov-14 19:33N 22°19' E 114°12'0 0.0
2014-Nov-14 18:33N 22°19' E 114°12'0 0.0
2014-Nov-14 17:33N 22°19' E 114°12'0 0.0
2014-Nov-14 16:33N 22°19' E 114°12'0 0.0
2014-Nov-14 15:33N 22°19' E 114°12'0 0.0
2014-Nov-14 14:33N 22°19' E 114°12'0 0.0
2014-Nov-14 12:33N 22°19' E 114°12'4 2.5
2014-Nov-14 11:08N 22°18' E 114°08'3 4.5
2014-Nov-14 10:27N 22°18' E 114°12'1 0.9
2014-Nov-14 09:33N 22°19' E 114°12'0 0.0
2014-Nov-14 08:33N 22°19' E 114°12'0 0.0
2014-Nov-14 07:34N 22°19' E 114°12'0 0.4
2014-Nov-14 06:34N 22°18' E 114°12'2 1.0
2014-Nov-14 04:17N 22°17' E 114°10'0 0.0
2014-Nov-14 02:16N 22°17' E 114°10'0 0.0
2014-Nov-14 00:28N 22°17' E 114°10'2 1.2
2014-Nov-13 22:33N 22°19' E 114°12'0 0.4
2014-Nov-13 21:34N 22°19' E 114°12'0 0.0
2014-Nov-13 20:33N 22°19' E 114°12'0 0.0
2014-Nov-13 19:33N 22°19' E 114°12'0 0.0
2014-Nov-13 18:28N 22°19' E 114°12'0 0.0
2014-Nov-13 17:33N 22°19' E 114°12'0 0.0
2014-Nov-13 16:33N 22°19' E 114°12'0 0.0
2014-Nov-13 15:33N 22°19' E 114°12'0 0.0
2014-Nov-13 14:31N 22°19' E 114°12'0 0.0
2014-Nov-13 13:33N 22°19' E 114°12'0 0.0
2014-Nov-13 12:33N 22°19' E 114°12'3 2.4
2014-Nov-13 11:08N 22°18' E 114°08'3 3.6
2014-Nov-13 10:22N 22°18' E 114°11'1 1.4
2014-Nov-13 09:32N 22°19' E 114°12'0 0.0
2014-Nov-13 08:33N 22°19' E 114°12'0 0.0
2014-Nov-13 07:33N 22°19' E 114°12'1 0.5
2014-Nov-13 06:34N 22°18' E 114°12'2 1.0
2014-Nov-13 04:18N 22°17' E 114°10'0 0.0
2014-Nov-13 02:30N 22°17' E 114°10'0 0.0
2014-Nov-13 00:31N 22°17' E 114°10'2 1.7
2014-Nov-12 23:11N 22°17' E 114°07'4 6.6
2014-Nov-12 22:33N 22°18' E 114°12'1 1.1
2014-Nov-12 21:33N 22°19' E 114°12'0 0.0
2014-Nov-12 20:33N 22°19' E 114°12'0 0.0
2014-Nov-12 19:33N 22°19' E 114°12'0 0.1
2014-Nov-12 18:33N 22°19' E 114°12'0 0.1
2014-Nov-12 17:33N 22°19' E 114°12'0 0.0
2014-Nov-12 16:33N 22°19' E 114°12'0 0.0
2014-Nov-12 15:33N 22°19' E 114°12'0 0.0
2014-Nov-12 14:33N 22°19' E 114°12'0 0.0
2014-Nov-12 13:33N 22°19' E 114°12'0 0.0
2014-Nov-12 12:33N 22°19' E 114°12'4 2.9
2014-Nov-12 11:08N 22°18' E 114°08'2 3.4
2014-Nov-12 10:33N 22°17' E 114°10'3 2.6
2014-Nov-12 09:33N 22°19' E 114°12'0 0.1
2014-Nov-12 08:33N 22°19' E 114°12'0 0.0
2014-Nov-12 07:33N 22°19' E 114°12'0 0.5
2014-Nov-12 06:33N 22°18' E 114°12'2 1.2
2014-Nov-12 04:33N 22°17' E 114°10'0 0.0
2014-Nov-12 02:13N 22°17' E 114°10'0 0.0
2014-Nov-12 00:33N 22°17' E 114°10'3 1.3
2014-Nov-11 22:33N 22°19' E 114°12'0 0.1
2014-Nov-11 21:33N 22°19' E 114°12'0 0.0
2014-Nov-11 20:33N 22°19' E 114°12'0 0.0
2014-Nov-11 19:33N 22°19' E 114°12'0 0.0
2014-Nov-11 18:34N 22°19' E 114°12'  

Dump ship's entire track history